Time;durP1;ratioP1;P1;durP2;ratioP2;P2;SDS_P1;SDS_P2;PMS_P1;PMS_P2;Temp;Humidity;BMP_temperature;BMP_pressure;BME280_temperature;BME280_humidity;BME280_pressure;Samples;Min_cycle;Max_cycle;Signal;HPM_P1;HPM_P2
2023/03/22 00:00:49;;;;;;;;;;;18.30;54.90;;;;;;5007826;28;19957;-76
2023/03/22 00:03:15;;;;;;;;;;;18.30;54.90;;;;;;5005953;28;19964;-76
2023/03/22 00:05:40;;;;;;;;;;;18.40;55.00;;;;;;5007473;28;19921;-76
2023/03/22 00:08:07;;;;;;;;;;;18.30;54.80;;;;;;5004158;28;20345;-76
2023/03/22 00:10:32;;;;;;;;;;;18.40;55.00;;;;;;5002666;28;20450;-76
2023/03/22 00:12:58;;;;;;;;;;;18.30;55.00;;;;;;4996836;28;19917;-76
2023/03/22 00:15:24;;;;;;;;;;;18.30;54.90;;;;;;4999226;28;19956;-75
2023/03/22 00:17:49;;;;;;;;;;;18.30;54.90;;;;;;4999120;28;19978;-76
2023/03/22 00:20:16;;;;;;;;;;;18.30;55.00;;;;;;5010922;28;19918;-76
2023/03/22 00:22:42;;;;;;;;;;;18.30;54.90;;;;;;5013958;28;20312;-76
2023/03/22 00:25:07;;;;;;;;;;;18.30;55.00;;;;;;4995955;28;19913;-76
2023/03/22 00:27:32;;;;;;;;;;;18.30;55.00;;;;;;5008284;28;19960;-76
2023/03/22 00:29:58;;;;;;;;;;;18.30;55.00;;;;;;5004861;27;20346;-75
2023/03/22 00:32:23;;;;;;;;;;;18.30;55.00;;;;;;5009758;28;19914;-75
2023/03/22 00:34:49;;;;;;;;;;;18.20;54.90;;;;;;5004139;28;19948;-76
2023/03/22 00:37:17;;;;;;;;;;;18.20;54.90;;;;;;5000868;28;19921;-76
2023/03/22 00:39:43;;;;;;;;;;;18.20;54.90;;;;;;5005593;28;19921;-76
2023/03/22 00:42:08;;;;;;;;;;;18.20;54.90;;;;;;4992164;28;19913;-76
2023/03/22 00:44:34;;;;;;;;;;;18.20;55.00;;;;;;5002922;28;20728;-75
2023/03/22 00:47:00;;;;;;;;;;;18.20;54.90;;;;;;4998441;28;19922;-77
2023/03/22 00:49:26;;;;;;;;;;;18.20;54.90;;;;;;5003231;28;19966;-76
2023/03/22 00:51:51;;;;;;;;;;;18.10;54.90;;;;;;5006401;28;20430;-76
2023/03/22 00:54:17;;;;;;;;;;;18.20;55.00;;;;;;4996903;28;19917;-76
2023/03/22 00:56:44;;;;;;;;;;;18.10;54.80;;;;;;5005488;28;19914;-76
2023/03/22 00:59:11;;;;;;;;;;;18.20;55.00;;;;;;4990089;28;20366;-76
2023/03/22 01:01:37;;;;;;;;;;;18.10;55.00;;;;;;5012205;28;19919;-76
2023/03/22 01:04:03;;;;;;;;;;;18.10;55.00;;;;;;4996294;28;20000;-76
2023/03/22 01:06:29;;;;;;;;;;;18.10;55.00;;;;;;5007189;28;19913;-76
2023/03/22 01:08:56;;;;;;;;;;;18.10;54.90;;;;;;4992343;28;19920;-76
2023/03/22 01:11:21;;;;;;;;;;;18.10;55.00;;;;;;5004733;28;19953;-76
2023/03/22 01:13:47;;;;;;;;;;;18.10;54.90;;;;;;5008545;28;19945;-76
2023/03/22 01:16:12;;;;;;;;;;;18.10;55.00;;;;;;5017346;28;19920;-76
2023/03/22 01:18:37;;;;;;;;;;;18.10;55.00;;;;;;5016235;28;19917;-76
2023/03/22 01:21:03;;;;;;;;;;;18.10;55.00;;;;;;5012339;28;19955;-76
2023/03/22 01:23:29;;;;;;;;;;;18.00;54.90;;;;;;5017914;28;19924;-76
2023/03/22 01:25:54;;;;;;;;;;;18.00;54.80;;;;;;5011211;28;19917;-75
2023/03/22 01:28:20;;;;;;;;;;;18.00;54.80;;;;;;4990719;28;20024;-75
2023/03/22 01:30:45;;;;;;;;;;;18.00;54.90;;;;;;4990083;28;20371;-76
2023/03/22 01:33:11;;;;;;;;;;;18.00;54.80;;;;;;5006308;28;20390;-75
2023/03/22 01:35:36;;;;;;;;;;;18.00;54.80;;;;;;5019036;27;19917;-76
2023/03/22 01:38:02;;;;;;;;;;;18.00;54.90;;;;;;5001300;28;19918;-76
2023/03/22 01:40:27;;;;;;;;;;;18.00;54.90;;;;;;5007397;28;19914;-76
2023/03/22 01:42:53;;;;;;;;;;;17.90;54.80;;;;;;5006742;28;19918;-76
2023/03/22 01:45:36;;;;;;;;;;;17.90;54.80;;;;;;4994379;28;19929;-76
2023/03/22 01:48:22;;;;;;;;;;;17.90;54.80;;;;;;4990427;28;19914;-76
2023/03/22 01:50:54;;;;;;;;;;;17.90;54.80;;;;;;5002045;28;19921;-76
2023/03/22 01:53:22;;;;;;;;;;;17.90;54.80;;;;;;5013610;28;20313;-76
2023/03/22 01:55:47;;;;;;;;;;;17.90;54.80;;;;;;5007968;28;19914;-76
2023/03/22 01:58:16;;;;;;;;;;;17.90;54.80;;;;;;5033685;28;19917;-76
2023/03/22 02:00:42;;;;;;;;;;;17.90;54.80;;;;;;5018385;28;19922;-76
2023/03/22 02:03:07;;;;;;;;;;;17.90;54.80;;;;;;5008167;28;19914;-76
2023/03/22 02:05:33;;;;;;;;;;;17.90;54.90;;;;;;5008386;28;19913;-76
2023/03/22 02:07:59;;;;;;;;;;;17.90;54.80;;;;;;4998108;28;19949;-75
2023/03/22 02:10:25;;;;;;;;;;;17.80;54.70;;;;;;5000122;28;19932;-75
2023/03/22 02:12:59;;;;;;;;;;;17.90;54.80;;;;;;4999637;28;19917;-76
2023/03/22 02:15:32;;;;;;;;;;;17.90;54.80;;;;;;5005311;28;19913;-76
2023/03/22 02:17:58;;;;;;;;;;;17.90;54.80;;;;;;4996130;28;20270;-76
2023/03/22 02:20:44;;;;;;;;;;;17.90;54.70;;;;;;5024690;27;20012;-75
2023/03/22 02:23:13;;;;;;;;;;;17.90;54.60;;;;;;5028507;28;19919;-76
2023/03/22 02:25:38;;;;;;;;;;;18.00;54.50;;;;;;5025262;27;19992;-76
2023/03/22 02:28:07;;;;;;;;;;;18.00;54.30;;;;;;5011612;28;19950;-76
2023/03/22 02:30:52;;;;;;;;;;;18.10;54.10;;;;;;4999061;28;20505;-76
2023/03/22 02:33:17;;;;;;;;;;;18.20;54.00;;;;;;5010562;28;20397;-76
2023/03/22 02:35:46;;;;;;;;;;;18.20;53.90;;;;;;5010022;28;20709;-75
2023/03/22 02:38:26;;;;;;;;;;;18.30;53.80;;;;;;5009151;28;20088;-76
2023/03/22 02:40:57;;;;;;;;;;;18.30;53.70;;;;;;5009326;28;19913;-75
2023/03/22 02:43:29;;;;;;;;;;;18.30;53.60;;;;;;5011217;28;19914;-76
2023/03/22 02:46:06;;;;;;;;;;;18.40;53.70;;;;;;5000884;28;20226;-76
2023/03/22 02:48:43;;;;;;;;;;;18.40;53.70;;;;;;5005049;28;19914;-76
2023/03/22 02:51:10;;;;;;;;;;;18.40;53.70;;;;;;5008323;28;20279;-75
2023/03/22 02:53:39;;;;;;;;;;;18.30;53.60;;;;;;5007955;28;19953;-76
2023/03/22 02:56:17;;;;;;;;;;;18.40;53.70;;;;;;4993825;28;20309;-76
2023/03/22 02:58:44;;;;;;;;;;;18.30;53.60;;;;;;5005569;28;19930;-76
2023/03/22 03:01:12;;;;;;;;;;;18.30;53.60;;;;;;5014459;27;19920;-76
2023/03/22 03:03:38;;;;;;;;;;;18.30;53.60;;;;;;5018442;27;19920;-76
2023/03/22 03:06:14;;;;;;;;;;;18.30;53.60;;;;;;5006730;28;20008;-76
2023/03/22 03:08:39;;;;;;;;;;;18.30;53.60;;;;;;4995235;28;20899;-76
2023/03/22 03:11:05;;;;;;;;;;;18.30;53.60;;;;;;5004323;28;19953;-76
2023/03/22 03:13:30;;;;;;;;;;;18.30;53.60;;;;;;5005710;28;19918;-76
2023/03/22 03:15:57;;;;;;;;;;;18.20;53.60;;;;;;5005598;28;19913;-76
2023/03/22 03:18:45;;;;;;;;;;;18.20;53.60;;;;;;5006648;28;21173;-76
2023/03/22 03:21:22;;;;;;;;;;;18.30;53.70;;;;;;5015916;27;19963;-76
2023/03/22 03:23:53;;;;;;;;;;;18.20;53.60;;;;;;5008864;28;19913;-76
2023/03/22 03:26:32;;;;;;;;;;;18.20;53.80;;;;;;5019722;27;19925;-76
2023/03/22 03:28:59;;;;;;;;;;;18.10;53.70;;;;;;5010410;28;20425;-75
2023/03/22 03:31:42;;;;;;;;;;;18.20;53.60;;;;;;5000547;28;19913;-75
2023/03/22 03:34:14;;;;;;;;;;;18.20;53.60;;;;;;5006727;28;19914;-76
2023/03/22 03:36:41;;;;;;;;;;;18.20;53.70;;;;;;5008731;28;19921;-76
2023/03/22 03:39:08;;;;;;;;;;;18.20;53.80;;;;;;5007323;28;20008;-76
2023/03/22 03:41:33;;;;;;;;;;;18.20;53.60;;;;;;5008334;28;19918;-75
2023/03/22 03:43:58;;;;;;;;;;;18.20;53.70;;;;;;4994930;28;20004;-76
2023/03/22 03:46:24;;;;;;;;;;;18.10;53.70;;;;;;5006969;28;20004;-76
2023/03/22 03:48:50;;;;;;;;;;;18.10;53.80;;;;;;4993298;28;19928;-76
2023/03/22 03:51:16;;;;;;;;;;;18.10;53.80;;;;;;5009186;28;19947;-75
2023/03/22 03:53:41;;;;;;;;;;;18.10;53.80;;;;;;5003918;28;19913;-75
2023/03/22 03:56:07;;;;;;;;;;;18.10;53.80;;;;;;4996758;28;19913;-76
2023/03/22 03:58:32;;;;;;;;;;;18.10;53.80;;;;;;5010937;28;19921;-75
2023/03/22 04:00:58;;;;;;;;;;;18.10;53.80;;;;;;5010744;28;19919;-76
2023/03/22 04:03:23;;;;;;;;;;;18.10;53.70;;;;;;5012423;27;19948;-76
2023/03/22 04:05:49;;;;;;;;;;;18.10;53.80;;;;;;5010578;28;19959;-76
2023/03/22 04:08:14;;;;;;;;;;;18.10;53.80;;;;;;5008382;28;19929;-76
2023/03/22 04:10:40;;;;;;;;;;;18.00;53.70;;;;;;5005525;28;19979;-76
2023/03/22 04:13:05;;;;;;;;;;;18.10;53.80;;;;;;4996530;28;19917;-75
2023/03/22 04:15:31;;;;;;;;;;;18.00;53.80;;;;;;4992236;28;19921;-75
2023/03/22 04:17:57;;;;;;;;;;;18.00;54.00;;;;;;5005996;28;20004;-76
2023/03/22 04:20:24;;;;;;;;;;;18.00;53.90;;;;;;5005460;28;19918;-76
2023/03/22 04:22:51;;;;;;;;;;;18.00;53.80;;;;;;4993774;28;19917;-76
2023/03/22 04:25:17;;;;;;;;;;;17.90;53.90;;;;;;5005460;28;19913;-75
2023/03/22 04:27:42;;;;;;;;;;;17.90;53.90;;;;;;5010863;28;19966;-76
2023/03/22 04:30:11;;;;;;;;;;;17.90;53.80;;;;;;5026910;28;19923;-75
2023/03/22 04:32:37;;;;;;;;;;;17.90;54.00;;;;;;5009950;28;19914;-76
2023/03/22 04:35:03;;;;;;;;;;;17.80;54.00;;;;;;4992996;28;19913;-75
2023/03/22 04:37:32;;;;;;;;;;;17.80;54.00;;;;;;4998575;28;19917;-75
2023/03/22 04:39:58;;;;;;;;;;;17.80;53.90;;;;;;5007612;28;19914;-76
2023/03/22 04:42:23;;;;;;;;;;;17.80;53.90;;;;;;5009947;28;19924;-75
2023/03/22 04:44:49;;;;;;;;;;;17.80;53.90;;;;;;5003848;28;19921;-76
2023/03/22 04:47:14;;;;;;;;;;;18.00;53.90;;;;;;4999433;28;20381;-75
2023/03/22 04:49:40;;;;;;;;;;;17.90;53.60;;;;;;5010497;28;20453;-75
2023/03/22 04:52:06;;;;;;;;;;;18.00;53.70;;;;;;4991904;28;20289;-76
2023/03/22 04:54:31;;;;;;;;;;;17.90;53.60;;;;;;5000118;28;19990;-76
2023/03/22 04:56:57;;;;;;;;;;;17.90;53.50;;;;;;4999055;28;19957;-75
2023/03/22 04:59:22;;;;;;;;;;;17.90;53.50;;;;;;5007058;28;19962;-76
2023/03/22 05:01:48;;;;;;;;;;;17.90;53.40;;;;;;4999700;28;19924;-76
2023/03/22 05:04:13;;;;;;;;;;;17.90;53.40;;;;;;5007070;27;19917;-76
2023/03/22 05:06:39;;;;;;;;;;;17.90;53.30;;;;;;5003912;28;19928;-76
2023/03/22 05:09:04;;;;;;;;;;;17.90;53.30;;;;;;5004603;28;19928;-76
2023/03/22 05:11:30;;;;;;;;;;;18.00;53.40;;;;;;4991101;28;19940;-75
2023/03/22 05:13:56;;;;;;;;;;;18.00;53.40;;;;;;5003600;28;20450;-76
2023/03/22 05:16:22;;;;;;;;;;;18.00;53.30;;;;;;5000080;28;19940;-75
2023/03/22 05:18:48;;;;;;;;;;;17.90;53.30;;;;;;5002702;28;19964;-76
2023/03/22 05:21:16;;;;;;;;;;;18.00;53.30;;;;;;5006331;28;19923;-76
2023/03/22 05:23:41;;;;;;;;;;;17.90;53.20;;;;;;5008027;28;19921;-75
2023/03/22 05:26:07;;;;;;;;;;;17.90;53.20;;;;;;5009682;28;19921;-76
2023/03/22 05:28:33;;;;;;;;;;;18.00;53.40;;;;;;5004929;28;19967;-75
2023/03/22 05:30:58;;;;;;;;;;;18.00;53.30;;;;;;5002572;28;19917;-75
2023/03/22 05:33:24;;;;;;;;;;;18.00;53.30;;;;;;5007483;28;19949;-75
2023/03/22 05:35:49;;;;;;;;;;;17.90;53.30;;;;;;4999277;28;20436;-75
2023/03/22 05:38:15;;;;;;;;;;;17.90;53.30;;;;;;5005988;28;19960;-75
2023/03/22 05:40:41;;;;;;;;;;;17.90;53.30;;;;;;5005606;28;19921;-75
2023/03/22 05:43:07;;;;;;;;;;;17.80;53.20;;;;;;5010858;28;19973;-76
2023/03/22 05:45:34;;;;;;;;;;;17.90;53.30;;;;;;5006380;28;19917;-75
2023/03/22 05:47:59;;;;;;;;;;;17.90;53.20;;;;;;5004983;28;19917;-75
2023/03/22 05:50:25;;;;;;;;;;;17.90;53.20;;;;;;5005395;28;19914;-76
2023/03/22 05:52:51;;;;;;;;;;;17.90;53.20;;;;;;5002565;28;19917;-76
2023/03/22 05:55:16;;;;;;;;;;;17.90;53.20;;;;;;4990426;28;19926;-75
2023/03/22 05:57:42;;;;;;;;;;;18.00;53.30;;;;;;5006734;28;19918;-75
2023/03/22 06:00:12;;;;;;;;;;;18.00;53.30;;;;;;5006858;28;20309;-76
2023/03/22 06:02:41;;;;;;;;;;;18.00;53.30;;;;;;5005825;28;19921;-76
2023/03/22 06:05:07;;;;;;;;;;;18.00;53.20;;;;;;5079932;28;19952;-76
2023/03/22 06:07:33;;;;;;;;;;;18.00;53.20;;;;;;5018473;28;19913;-76
2023/03/22 06:09:58;;;;;;;;;;;18.00;53.20;;;;;;5007010;28;20350;-75
2023/03/22 06:12:24;;;;;;;;;;;18.10;52.90;;;;;;5003711;28;19953;-75
2023/03/22 06:14:50;;;;;;;;;;;18.00;53.80;;;;;;5007782;28;19940;-75
2023/03/22 06:17:16;;;;;;;;;;;18.10;53.50;;;;;;4999610;28;20021;-75
2023/03/22 06:19:41;;;;;;;;;;;18.00;53.30;;;;;;4995127;28;19914;-75
2023/03/22 06:22:06;;;;;;;;;;;18.00;53.20;;;;;;5008494;28;19919;-75
2023/03/22 06:24:32;;;;;;;;;;;18.00;53.30;;;;;;4995881;28;19921;-75
2023/03/22 06:26:58;;;;;;;;;;;18.00;53.30;;;;;;4999011;28;20571;-75
2023/03/22 06:29:23;;;;;;;;;;;18.00;53.30;;;;;;5011647;28;19979;-75
2023/03/22 06:31:49;;;;;;;;;;;18.00;53.30;;;;;;5012516;28;19910;-75
2023/03/22 06:34:14;;;;;;;;;;;17.90;53.30;;;;;;5011391;28;19964;-75
2023/03/22 06:36:41;;;;;;;;;;;18.00;53.30;;;;;;5014483;28;20348;-75
2023/03/22 06:39:07;;;;;;;;;;;17.90;53.20;;;;;;5027272;28;19924;-75
2023/03/22 06:41:32;;;;;;;;;;;18.00;53.30;;;;;;5007560;28;19950;-75
2023/03/22 06:43:57;;;;;;;;;;;18.00;53.30;;;;;;5061920;28;19917;-75
2023/03/22 06:46:23;;;;;;;;;;;17.90;53.20;;;;;;5009659;28;20007;-75
2023/03/22 06:48:48;;;;;;;;;;;17.90;53.30;;;;;;5016801;28;20658;-75
2023/03/22 06:51:14;;;;;;;;;;;17.90;53.20;;;;;;5013454;28;20252;-76
2023/03/22 06:53:39;;;;;;;;;;;17.90;53.20;;;;;;5001551;28;19909;-76
2023/03/22 06:56:05;;;;;;;;;;;17.90;53.20;;;;;;5017879;28;19920;-76
2023/03/22 06:58:30;;;;;;;;;;;17.90;53.30;;;;;;5008368;28;19918;-75
2023/03/22 07:00:56;;;;;;;;;;;17.80;53.20;;;;;;5008834;28;19913;-76
2023/03/22 07:03:21;;;;;;;;;;;17.90;53.30;;;;;;5015822;27;20354;-75
2023/03/22 07:05:47;;;;;;;;;;;17.90;53.40;;;;;;5088147;28;19914;-75
2023/03/22 07:08:12;;;;;;;;;;;17.90;53.20;;;;;;5007573;28;20196;-76
2023/03/22 07:10:38;;;;;;;;;;;18.00;53.30;;;;;;5004240;28;20008;-76
2023/03/22 07:13:03;;;;;;;;;;;18.00;53.30;;;;;;5001606;28;20309;-76
2023/03/22 07:15:29;;;;;;;;;;;18.00;53.30;;;;;;5006543;28;19917;-76
2023/03/22 07:17:55;;;;;;;;;;;18.00;53.30;;;;;;5008758;28;19974;-76
2023/03/22 07:20:20;;;;;;;;;;;17.90;53.20;;;;;;4996873;28;19917;-76
2023/03/22 07:22:46;;;;;;;;;;;17.90;53.30;;;;;;5010756;28;19921;-76
2023/03/22 07:25:11;;;;;;;;;;;17.90;53.30;;;;;;5014543;28;20008;-76
2023/03/22 07:27:37;;;;;;;;;;;17.90;53.30;;;;;;5006953;28;20256;-76
2023/03/22 07:30:03;;;;;;;;;;;17.90;53.30;;;;;;4998006;28;19921;-76
2023/03/22 07:32:28;;;;;;;;;;;17.80;53.50;;;;;;4996815;28;20414;-76
2023/03/22 07:34:54;;;;;;;;;;;17.80;53.50;;;;;;4988970;28;19917;-76
2023/03/22 07:37:19;;;;;;;;;;;17.70;53.30;;;;;;5009054;28;19917;-76
2023/03/22 07:39:45;;;;;;;;;;;17.80;53.30;;;;;;5005625;28;19914;-75
2023/03/22 07:42:10;;;;;;;;;;;17.80;53.30;;;;;;4999606;28;19923;-76
2023/03/22 07:44:36;;;;;;;;;;;17.80;53.40;;;;;;5006979;28;19959;-75
2023/03/22 07:47:01;;;;;;;;;;;17.80;53.50;;;;;;5009743;28;20016;-75
2023/03/22 07:49:27;;;;;;;;;;;17.80;53.50;;;;;;5006853;28;19914;-76
2023/03/22 07:51:52;;;;;;;;;;;17.80;53.60;;;;;;4993283;28;19922;-75
2023/03/22 07:54:17;;;;;;;;;;;17.80;53.50;;;;;;5008933;28;19917;-75
2023/03/22 07:56:43;;;;;;;;;;;17.80;53.40;;;;;;4997978;28;19939;-76
2023/03/22 07:59:09;;;;;;;;;;;17.90;53.30;;;;;;4996584;28;19957;-76
2023/03/22 08:01:35;;;;;;;;;;;17.90;53.40;;;;;;5029178;28;19917;-76
2023/03/22 08:04:00;;;;;;;;;;;17.90;53.70;;;;;;5010472;27;19921;-76
2023/03/22 08:06:26;;;;;;;;;;;17.90;54.00;;;;;;4993826;28;19914;-76
2023/03/22 08:08:51;;;;;;;;;;;17.80;54.00;;;;;;4997021;28;19920;-77
2023/03/22 08:11:17;;;;;;;;;;;18.00;53.90;;;;;;4993452;28;19976;-77
2023/03/22 08:13:42;;;;;;;;;;;18.70;53.20;;;;;;4995804;28;19996;-75
2023/03/22 08:16:08;;;;;;;;;;;19.60;51.20;;;;;;5015793;28;19963;-74
2023/03/22 08:18:33;;;;;;;;;;;20.50;49.30;;;;;;4992306;28;20007;-75
2023/03/22 08:20:59;;;;;;;;;;;21.20;48.00;;;;;;4994422;28;19913;-76
2023/03/22 08:23:25;;;;;;;;;;;21.60;47.10;;;;;;5004765;27;19925;-75
2023/03/22 08:25:50;;;;;;;;;;;21.90;46.30;;;;;;4999808;28;19918;-75
2023/03/22 08:28:16;;;;;;;;;;;22.30;46.10;;;;;;5004347;28;19947;-75
2023/03/22 08:30:45;;;;;;;;;;;22.60;45.50;;;;;;4996066;28;19917;-75
2023/03/22 08:33:11;;;;;;;;;;;22.80;45.20;;;;;;4995319;28;19924;-75
2023/03/22 08:35:38;;;;;;;;;;;23.00;44.90;;;;;;5007024;28;20232;-75
2023/03/22 08:38:04;;;;;;;;;;;23.20;44.40;;;;;;5010001;28;19921;-76
2023/03/22 08:40:29;;;;;;;;;;;23.40;44.30;;;;;;5009354;28;20323;-76
2023/03/22 08:42:55;;;;;;;;;;;23.50;43.90;;;;;;4993493;28;19913;-75
2023/03/22 08:45:20;;;;;;;;;;;23.60;43.90;;;;;;4999457;28;19925;-75
2023/03/22 08:47:46;;;;;;;;;;;23.70;43.60;;;;;;5004505;28;19960;-75
2023/03/22 08:50:11;;;;;;;;;;;23.70;43.50;;;;;;5000824;28;19920;-75
2023/03/22 08:52:37;;;;;;;;;;;23.80;43.50;;;;;;5012289;28;20012;-76
2023/03/22 08:55:03;;;;;;;;;;;23.80;43.50;;;;;;5006423;28;19924;-75
2023/03/22 08:57:28;;;;;;;;;;;23.80;43.30;;;;;;5007815;28;20009;-76
2023/03/22 08:59:55;;;;;;;;;;;23.70;43.30;;;;;;5006135;28;19947;-76
2023/03/22 09:02:21;;;;;;;;;;;23.80;43.50;;;;;;5005901;28;19922;-76
2023/03/22 09:04:46;;;;;;;;;;;23.60;43.80;;;;;;5002802;28;19917;-76
2023/03/22 09:07:11;;;;;;;;;;;23.40;44.10;;;;;;5016477;28;20054;-76
2023/03/22 09:09:37;;;;;;;;;;;23.30;44.50;;;;;;5003813;28;19919;-76
2023/03/22 09:12:02;;;;;;;;;;;23.10;44.70;;;;;;5004758;28;19922;-76
2023/03/22 09:14:28;;;;;;;;;;;23.00;44.90;;;;;;5007008;28;19933;-76
2023/03/22 09:16:53;;;;;;;;;;;23.00;45.20;;;;;;5005755;28;19931;-76
2023/03/22 09:19:19;;;;;;;;;;;22.70;45.40;;;;;;5005864;28;20378;-75
2023/03/22 09:21:44;;;;;;;;;;;22.60;45.90;;;;;;4996258;28;19921;-75
2023/03/22 09:24:10;;;;;;;;;;;22.50;46.40;;;;;;5017240;28;20016;-75
2023/03/22 09:26:35;;;;;;;;;;;22.40;46.40;;;;;;5015502;28;20290;-75
2023/03/22 09:29:01;;;;;;;;;;;22.40;46.50;;;;;;5019303;28;20153;-75
2023/03/22 09:31:27;;;;;;;;;;;22.40;46.70;;;;;;5001890;28;19913;-76
2023/03/22 09:33:52;;;;;;;;;;;22.20;47.00;;;;;;5020167;28;19917;-76
2023/03/22 09:36:18;;;;;;;;;;;22.10;47.40;;;;;;5006578;28;19914;-76
2023/03/22 09:38:45;;;;;;;;;;;22.00;47.70;;;;;;5012928;28;19926;-76
2023/03/22 09:41:32;;;;;;;;;;;21.90;47.80;;;;;;5009851;28;19914;-74
2023/03/22 09:43:58;;;;;;;;;;;22.00;47.70;;;;;;5008379;28;19914;-76
2023/03/22 09:46:31;;;;;;;;;;;22.20;47.00;;;;;;5023014;28;19917;-76
2023/03/22 09:48:57;;;;;;;;;;;22.50;46.50;;;;;;5014676;28;20786;-76
2023/03/22 09:51:26;;;;;;;;;;;22.90;45.60;;;;;;5021675;28;19993;-76
2023/03/22 09:53:52;;;;;;;;;;;23.20;44.90;;;;;;5022864;28;20012;-75
2023/03/22 09:56:21;;;;;;;;;;;23.40;44.50;;;;;;5021571;28;20012;-75
2023/03/22 09:58:53;;;;;;;;;;;23.60;44.90;;;;;;5088654;27;19917;-76
2023/03/22 10:01:33;;;;;;;;;;;23.60;43.90;;;;;;5020914;28;20471;-75
2023/03/22 10:04:01;;;;;;;;;;;23.70;43.90;;;;;;5015941;28;20393;-75
2023/03/22 10:06:27;;;;;;;;;;;23.70;43.80;;;;;;5000315;28;20031;-75
2023/03/22 10:09:05;;;;;;;;;;;23.50;44.00;;;;;;5019465;28;20012;-75
2023/03/22 10:11:36;;;;;;;;;;;23.30;44.50;;;;;;5017671;28;19936;-75
2023/03/22 10:14:10;;;;;;;;;;;23.10;44.70;;;;;;5009880;28;20021;-75
2023/03/22 10:16:35;;;;;;;;;;;23.20;44.80;;;;;;5017085;28;20339;-75
2023/03/22 10:19:07;;;;;;;;;;;23.30;44.50;;;;;;5020914;28;19921;-75
2023/03/22 10:21:32;;;;;;;;;;;23.50;44.40;;;;;;5005062;28;20402;-75
2023/03/22 10:24:03;;;;;;;;;;;23.70;44.70;;;;;;5021439;28;19917;-75
2023/03/22 10:26:38;;;;;;;;;;;23.70;44.00;;;;;;5006620;28;20024;-74
2023/03/22 10:29:08;;;;;;;;;;;23.70;44.10;;;;;;4993706;28;19940;-75
2023/03/22 10:31:34;;;;;;;;;;;23.80;44.20;;;;;;5020996;28;19924;-75
2023/03/22 10:34:06;;;;;;;;;;;23.80;44.00;;;;;;5008739;28;19925;-75
2023/03/22 10:36:33;;;;;;;;;;;23.80;43.90;;;;;;5014618;28;19928;-76
2023/03/22 10:39:18;;;;;;;;;;;23.80;44.10;;;;;;5022997;28;20022;-75
2023/03/22 10:41:43;;;;;;;;;;;23.70;44.20;;;;;;5021801;28;19948;-75
2023/03/22 10:44:09;;;;;;;;;;;23.70;44.20;;;;;;5025414;28;19956;-76
2023/03/22 10:46:36;;;;;;;;;;;23.80;44.10;;;;;;5009308;28;19920;-76
2023/03/22 10:49:02;;;;;;;;;;;23.80;44.10;;;;;;5008945;28;20008;-76
2023/03/22 10:51:29;;;;;;;;;;;23.90;44.00;;;;;;5009717;28;20343;-75
2023/03/22 10:53:57;;;;;;;;;;;23.90;43.80;;;;;;5021647;28;19913;-76
2023/03/22 10:56:22;;;;;;;;;;;24.00;43.70;;;;;;5019465;28;20008;-77
2023/03/22 10:58:48;;;;;;;;;;;24.00;43.60;;;;;;5013565;28;20101;-76
2023/03/22 11:01:15;;;;;;;;;;;24.00;43.60;;;;;;5007965;28;19965;-76
2023/03/22 11:03:42;;;;;;;;;;;24.00;43.60;;;;;;5019683;27;19965;-75
2023/03/22 11:06:07;;;;;;;;;;;23.90;43.70;;;;;;5018507;28;19920;-75
2023/03/22 11:08:42;;;;;;;;;;;24.00;43.80;;;;;;5019481;28;19913;-76
2023/03/22 11:11:16;;;;;;;;;;;24.00;44.00;;;;;;5010093;28;19929;-76
2023/03/22 11:13:44;;;;;;;;;;;23.90;44.10;;;;;;5017398;28;20382;-75
2023/03/22 11:16:09;;;;;;;;;;;23.90;44.00;;;;;;5006572;28;20378;-76
2023/03/22 11:18:35;;;;;;;;;;;24.00;43.70;;;;;;5026142;28;19965;-75
2023/03/22 11:21:04;;;;;;;;;;;23.90;43.50;;;;;;5012002;28;19913;-76
2023/03/22 11:23:33;;;;;;;;;;;23.80;43.30;;;;;;5018121;28;19964;-76
2023/03/22 11:26:01;;;;;;;;;;;23.70;43.80;;;;;;5007773;28;19918;-74
2023/03/22 11:28:28;;;;;;;;;;;23.60;44.20;;;;;;5009151;28;19913;-74
2023/03/22 11:31:04;;;;;;;;;;;23.40;44.60;;;;;;5006067;28;19924;-74
2023/03/22 11:33:30;;;;;;;;;;;23.20;45.00;;;;;;5024203;27;19918;-74
2023/03/22 11:35:56;;;;;;;;;;;23.20;45.10;;;;;;5007720;28;19917;-74
2023/03/22 11:38:23;;;;;;;;;;;23.30;45.10;;;;;;5005379;28;20009;-74
2023/03/22 11:40:51;;;;;;;;;;;23.40;44.90;;;;;;5020907;28;19924;-74
2023/03/22 11:43:20;;;;;;;;;;;23.60;44.70;;;;;;5002744;28;19913;-74
2023/03/22 11:45:45;;;;;;;;;;;23.80;44.40;;;;;;5012583;27;19913;-74
2023/03/22 11:48:12;;;;;;;;;;;24.00;44.10;;;;;;5012624;28;19938;-74
2023/03/22 11:50:38;;;;;;;;;;;24.00;43.80;;;;;;5013272;28;19970;-74
2023/03/22 11:53:05;;;;;;;;;;;24.00;43.90;;;;;;5021441;28;19917;-74
2023/03/22 11:55:31;;;;;;;;;;;23.80;44.70;;;;;;5018643;28;19917;-74
2023/03/22 11:57:57;;;;;;;;;;;23.70;44.20;;;;;;5004906;28;19921;-74
2023/03/22 12:00:23;;;;;;;;;;;23.70;44.30;;;;;;5005105;28;19918;-74
2023/03/22 12:02:58;;;;;;;;;;;23.70;44.20;;;;;;5010876;28;19924;-74
2023/03/22 12:05:26;;;;;;;;;;;23.90;44.10;;;;;;5017656;28;19921;-74
2023/03/22 12:08:02;;;;;;;;;;;23.90;43.80;;;;;;5004231;28;19924;-74
2023/03/22 12:10:29;;;;;;;;;;;24.00;43.70;;;;;;5012416;28;19972;-74
2023/03/22 12:12:57;;;;;;;;;;;24.20;43.50;;;;;;5019100;28;19929;-74
2023/03/22 12:15:26;;;;;;;;;;;24.20;43.40;;;;;;5007726;28;19922;-75
2023/03/22 12:17:58;;;;;;;;;;;24.20;43.50;;;;;;5012600;28;20293;-74
2023/03/22 12:20:32;;;;;;;;;;;24.10;43.60;;;;;;5014827;28;20636;-74
2023/03/22 12:22:57;;;;;;;;;;;24.00;44.00;;;;;;5014419;28;19956;-74
2023/03/22 12:25:28;;;;;;;;;;;23.80;44.30;;;;;;5011973;28;19953;-74
2023/03/22 12:27:54;;;;;;;;;;;23.80;44.30;;;;;;5003337;28;20343;-74
2023/03/22 12:30:21;;;;;;;;;;;23.90;44.30;;;;;;5012269;28;20592;-74
2023/03/22 12:32:51;;;;;;;;;;;24.00;44.10;;;;;;5019138;27;19922;-75
2023/03/22 12:35:19;;;;;;;;;;;24.10;44.00;;;;;;5011264;28;19914;-77
2023/03/22 12:37:45;;;;;;;;;;;24.20;44.10;;;;;;5015529;28;19917;-75
2023/03/22 12:40:19;;;;;;;;;;;24.30;43.90;;;;;;5000046;28;20008;-75
2023/03/22 12:43:00;;;;;;;;;;;24.30;43.80;;;;;;5014632;28;19913;-74
2023/03/22 12:45:26;;;;;;;;;;;24.30;43.70;;;;;;5021393;28;19921;-75
2023/03/22 12:48:15;;;;;;;;;;;24.30;43.50;;;;;;5017169;28;20371;-74
2023/03/22 12:50:42;;;;;;;;;;;24.40;44.00;;;;;;5023947;28;19913;-74
2023/03/22 12:53:14;;;;;;;;;;;24.40;43.40;;;;;;5011838;28;20366;-74
2023/03/22 12:55:39;;;;;;;;;;;24.40;43.40;;;;;;5015481;28;19960;-74
2023/03/22 12:58:05;;;;;;;;;;;24.40;43.40;;;;;;5011385;28;19987;-73
2023/03/22 13:00:37;;;;;;;;;;;24.40;43.20;;;;;;5011584;28;19921;-73
2023/03/22 13:03:07;;;;;;;;;;;24.30;43.50;;;;;;5007626;28;19966;-73
2023/03/22 13:05:33;;;;;;;;;;;24.20;43.70;;;;;;5010229;28;19940;-74
2023/03/22 13:08:02;;;;;;;;;;;24.10;43.90;;;;;;5023452;28;19976;-74
2023/03/22 13:10:31;;;;;;;;;;;24.10;44.00;;;;;;5021573;28;19994;-74
2023/03/22 13:13:02;;;;;;;;;;;24.00;44.00;;;;;;5015178;28;20007;-74
2023/03/22 13:15:30;;;;;;;;;;;24.00;44.00;;;;;;5018504;28;19952;-73
2023/03/22 13:17:56;;;;;;;;;;;24.00;43.80;;;;;;5001894;28;19928;-73
2023/03/22 13:20:25;;;;;;;;;;;24.00;44.00;;;;;;5008416;28;19918;-74
2023/03/22 13:22:51;;;;;;;;;;;23.80;44.30;;;;;;5009122;28;19913;-74
2023/03/22 13:25:17;;;;;;;;;;;23.70;44.70;;;;;;5012116;28;19917;-74
2023/03/22 13:27:43;;;;;;;;;;;23.60;45.00;;;;;;5016223;28;19954;-73
2023/03/22 13:30:21;;;;;;;;;;;23.60;45.00;;;;;;5015761;28;19913;-74
2023/03/22 13:32:49;;;;;;;;;;;23.80;44.60;;;;;;5017473;28;19974;-74
2023/03/22 13:35:22;;;;;;;;;;;24.10;44.20;;;;;;5011651;28;19958;-74
2023/03/22 13:37:50;;;;;;;;;;;24.20;43.80;;;;;;5002155;28;20008;-74
2023/03/22 13:40:32;;;;;;;;;;;24.40;43.80;;;;;;5017285;28;19940;-74
2023/03/22 13:43:11;;;;;;;;;;;24.30;43.70;;;;;;5005393;28;19926;-73
2023/03/22 13:45:36;;;;;;;;;;;24.30;43.70;;;;;;4999180;28;20375;-73
2023/03/22 13:48:10;;;;;;;;;;;24.40;43.50;;;;;;5013961;28;19956;-74
2023/03/22 13:50:35;;;;;;;;;;;24.50;43.60;;;;;;5002615;28;19928;-73
2023/03/22 13:53:02;;;;;;;;;;;24.50;43.50;;;;;;5011992;28;19914;-74
2023/03/22 13:55:36;;;;;;;;;;;24.60;43.40;;;;;;5014709;28;19920;-74
2023/03/22 13:58:03;;;;;;;;;;;24.60;43.30;;;;;;5015738;28;20127;-74
2023/03/22 14:00:29;;;;;;;;;;;24.60;43.60;;;;;;4999217;28;21487;-74
2023/03/22 14:02:55;;;;;;;;;;;24.50;43.70;;;;;;5014404;28;19917;-74
2023/03/22 14:05:21;;;;;;;;;;;24.40;43.60;;;;;;5008307;28;19975;-74
2023/03/22 14:07:48;;;;;;;;;;;24.30;43.80;;;;;;5006444;28;20002;-73
2023/03/22 14:10:15;;;;;;;;;;;24.30;43.80;;;;;;5029250;28;19927;-73
2023/03/22 14:12:48;;;;;;;;;;;24.30;43.80;;;;;;5012094;28;21299;-74
2023/03/22 14:15:15;;;;;;;;;;;24.50;43.70;;;;;;5016697;28;19917;-74
2023/03/22 14:17:51;;;;;;;;;;;24.50;43.60;;;;;;5019232;28;19920;-74